Time;durP1;ratioP1;P1;durP2;ratioP2;P2;SDS_P1;SDS_P2;PMS_P1;PMS_P2;Temp;Humidity;BMP_temperature;BMP_pressure;BME280_temperature;BME280_humidity;BME280_pressure;Samples;Min_cycle;Max_cycle;Signal;HPM_P1;HPM_P2
2023/04/09 00:00:16;;;;;;;17.70;14.73;;;6.90;99.90;;;;;;4954023;29;20707;-49
2023/04/09 00:02:43;;;;;;;18.67;15.07;;;6.90;99.90;;;;;;4953188;29;20213;-49
2023/04/09 00:05:10;;;;;;;18.97;16.17;;;6.80;99.90;;;;;;4952109;29;20264;-49
2023/04/09 00:07:38;;;;;;;27.10;24.40;;;6.90;99.90;;;;;;4951954;28;20681;-49
2023/04/09 00:10:06;;;;;;;22.60;20.30;;;6.90;99.90;;;;;;4964174;28;20210;-49
2023/04/09 00:12:33;;;;;;;20.10;17.00;;;6.90;99.90;;;;;;4953086;28;20589;-49
2023/04/09 00:15:01;;;;;;;22.67;20.43;;;6.90;99.90;;;;;;4952748;28;20739;-49
2023/04/09 00:17:28;;;;;;;17.30;15.50;;;7.00;99.90;;;;;;4953459;28;20226;-49
2023/04/09 00:19:55;;;;;;;17.17;15.27;;;7.00;99.90;;;;;;4952317;29;20637;-49
2023/04/09 00:22:22;;;;;;;18.13;15.67;;;6.90;99.90;;;;;;4953419;29;20201;-49
2023/04/09 00:24:49;;;;;;;18.03;15.07;;;6.90;99.90;;;;;;4950998;28;20262;-49
2023/04/09 00:27:16;;;;;;;16.30;14.20;;;7.00;99.90;;;;;;4952148;28;20195;-49
2023/04/09 00:29:43;;;;;;;24.77;18.90;;;6.90;99.90;;;;;;4947399;28;20216;-49
2023/04/09 00:32:11;;;;;;;18.17;15.47;;;6.80;99.90;;;;;;4962269;28;20213;-48
2023/04/09 00:34:38;;;;;;;18.73;16.73;;;6.70;99.90;;;;;;4951130;29;20202;-49
2023/04/09 00:37:05;;;;;;;37.40;33.60;;;6.70;99.90;;;;;;4952678;29;20226;-48
2023/04/09 00:39:32;;;;;;;23.80;21.37;;;6.70;99.90;;;;;;4951948;28;20725;-49
2023/04/09 00:42:01;;;;;;;21.10;18.57;;;6.70;99.90;;;;;;4952707;29;20259;-49
2023/04/09 00:44:28;;;;;;;25.60;20.90;;;6.70;99.90;;;;;;4951476;29;20222;-48
2023/04/09 00:46:55;;;;;;;20.60;17.50;;;6.70;99.90;;;;;;4948909;28;20216;-49
2023/04/09 00:49:25;;;;;;;22.57;16.80;;;6.80;99.90;;;;;;4946327;28;20296;-49
2023/04/09 00:51:52;;;;;;;18.13;15.13;;;6.80;99.90;;;;;;4953173;29;20282;-49
2023/04/09 00:54:19;;;;;;;18.70;16.23;;;6.80;99.90;;;;;;4951679;29;20261;-48
2023/04/09 00:56:46;;;;;;;19.83;16.87;;;6.80;99.90;;;;;;4952855;29;20774;-48
2023/04/09 00:59:13;;;;;;;20.10;17.30;;;6.80;99.90;;;;;;4952606;28;20235;-49
2023/04/09 01:01:40;;;;;;;24.17;19.57;;;6.80;99.90;;;;;;4952134;29;20211;-49
2023/04/09 01:04:07;;;;;;;21.20;17.30;;;6.80;99.90;;;;;;4952254;29;20261;-49
2023/04/09 01:06:42;;;;;;;23.70;18.10;;;6.90;99.90;;;;;;4954120;28;20581;-49
2023/04/09 01:09:13;;;;;;;23.23;17.97;;;6.90;99.90;;;;;;4955635;28;20762;-49
2023/04/09 01:11:46;;;;;;;22.60;18.07;;;6.90;99.90;;;;;;4954936;29;20224;-49
2023/04/09 01:14:22;;;;;;;23.33;18.37;;;7.00;99.90;;;;;;4955936;29;20210;-49
2023/04/09 01:17:03;;;;;;;21.30;17.87;;;6.80;99.90;;;;;;4949412;29;20212;-49
2023/04/09 01:19:41;;;;;;;25.37;18.97;;;6.80;99.90;;;;;;4956560;28;20296;-49
2023/04/09 01:22:23;;;;;;;28.50;20.73;;;6.80;99.90;;;;;;4955126;29;20206;-49
2023/04/09 01:25:03;;;;;;;27.10;21.67;;;6.80;99.90;;;;;;4947621;29;20223;-49
2023/04/09 01:27:41;;;;;;;23.43;19.97;;;6.70;99.90;;;;;;4954785;28;20207;-49
2023/04/09 01:30:13;;;;;;;26.17;22.20;;;6.70;99.90;;;;;;4956348;29;20201;-49
2023/04/09 01:32:41;;;;;;;28.43;23.93;;;6.70;99.90;;;;;;4956347;29;20206;-49
2023/04/09 01:35:09;;;;;;;32.00;22.87;;;6.60;99.90;;;;;;4956266;29;20662;-49
2023/04/09 01:37:41;;;;;;;26.57;23.13;;;6.70;99.90;;;;;;4956357;28;20291;-49
2023/04/09 01:40:09;;;;;;;28.90;22.90;;;6.80;99.90;;;;;;4955254;28;20202;-48
2023/04/09 01:42:40;;;;;;;27.33;22.20;;;6.70;99.90;;;;;;4956599;29;20261;-49
2023/04/09 01:45:12;;;;;;;28.17;23.73;;;6.80;99.90;;;;;;4955353;29;20619;-49
2023/04/09 01:47:42;;;;;;;30.87;23.97;;;6.70;99.90;;;;;;4956054;28;20284;-49
2023/04/09 01:50:10;;;;;;;32.17;23.50;;;6.70;99.90;;;;;;4954918;29;20262;-48
2023/04/09 01:52:38;;;;;;;29.20;22.57;;;6.70;99.90;;;;;;4954442;28;20557;-49
2023/04/09 01:55:06;;;;;;;29.30;24.50;;;6.60;99.90;;;;;;4956016;29;20617;-49
2023/04/09 01:57:33;;;;;;;31.20;25.17;;;6.60;99.90;;;;;;4955925;28;20248;-49
2023/04/09 02:00:00;;;;;;;31.80;25.50;;;6.60;99.90;;;;;;5009763;23;20235;-48
2023/04/09 02:02:39;;;;;;;30.07;21.93;;;6.60;99.90;;;;;;4991836;28;20276;-48
2023/04/09 02:05:10;;;;;;;29.37;22.67;;;6.50;99.90;;;;;;4993521;28;20230;-48
2023/04/09 02:07:42;;;;;;;30.40;24.40;;;6.40;99.90;;;;;;4994526;28;20202;-48
2023/04/09 02:10:11;;;;;;;29.83;22.17;;;6.50;99.90;;;;;;4976074;28;20238;-48
2023/04/09 02:12:42;;;;;;;28.30;21.00;;;6.50;99.90;;;;;;4973946;28;20248;-48
2023/04/09 02:15:10;;;;;;;27.90;22.57;;;6.60;99.90;;;;;;4975097;28;20209;-48
2023/04/09 02:17:42;;;;;;;27.63;20.57;;;6.50;99.90;;;;;;4972969;28;20230;-48
2023/04/09 02:20:10;;;;;;;26.40;23.13;;;6.50;99.90;;;;;;4973982;28;20246;-48
2023/04/09 02:22:39;;;;;;;25.17;21.80;;;6.50;99.90;;;;;;4974173;28;20217;-48
2023/04/09 02:25:06;;;;;;;24.50;20.70;;;6.50;99.90;;;;;;4973934;28;20260;-48
2023/04/09 02:27:33;;;;;;;24.57;20.13;;;6.50;99.90;;;;;;4974880;28;20265;-48
2023/04/09 02:30:00;;;;;;;23.23;18.90;;;6.50;99.90;;;;;;4967298;28;20232;-49
2023/04/09 02:32:27;;;;;;;28.83;23.23;;;6.40;99.90;;;;;;4972053;28;20215;-48
2023/04/09 02:34:56;;;;;;;26.23;21.13;;;6.40;99.90;;;;;;4973946;28;20204;-48
2023/04/09 02:37:22;;;;;;;23.13;19.20;;;6.40;99.90;;;;;;4974453;28;20218;-48
2023/04/09 02:39:49;;;;;;;22.50;19.57;;;6.30;99.90;;;;;;4974271;28;20844;-48
2023/04/09 02:42:16;;;;;;;27.47;22.60;;;6.30;99.90;;;;;;4971018;28;20249;-48
2023/04/09 02:44:44;;;;;;;25.20;22.53;;;6.30;99.90;;;;;;4978961;28;20273;-48
2023/04/09 02:47:11;;;;;;;26.27;22.23;;;6.30;99.90;;;;;;4974504;28;20225;-48
2023/04/09 02:49:38;;;;;;;23.80;21.23;;;6.30;99.90;;;;;;4973001;28;20226;-48
2023/04/09 02:52:06;;;;;;;32.20;27.30;;;6.30;99.90;;;;;;4973486;28;20252;-48
2023/04/09 02:54:33;;;;;;;32.37;28.47;;;6.30;99.90;;;;;;4971477;28;20609;-48
2023/04/09 02:57:00;;;;;;;26.23;22.43;;;6.30;99.90;;;;;;4968090;28;20286;-48
2023/04/09 02:59:27;;;;;;;32.77;29.07;;;6.30;99.90;;;;;;4973814;28;20234;-48
2023/04/09 03:01:54;;;;;;;22.80;19.93;;;6.40;99.90;;;;;;4972398;28;20197;-48
2023/04/09 03:04:21;;;;;;;28.33;24.60;;;6.30;99.90;;;;;;4973310;28;20286;-48
2023/04/09 03:06:47;;;;;;;30.40;26.60;;;6.30;99.90;;;;;;4972855;28;20198;-48
2023/04/09 03:09:16;;;;;;;28.37;25.37;;;6.30;99.90;;;;;;4973034;28;20390;-48
2023/04/09 03:11:43;;;;;;;25.23;22.53;;;6.30;99.90;;;;;;4973044;28;20253;-48
2023/04/09 03:14:10;;;;;;;27.47;22.37;;;6.30;99.90;;;;;;4973795;28;20641;-48
2023/04/09 03:16:36;;;;;;;32.30;28.40;;;6.30;99.90;;;;;;4973785;28;20296;-48
2023/04/09 03:19:03;;;;;;;28.37;25.40;;;6.30;99.90;;;;;;4966084;28;20239;-48
2023/04/09 03:21:30;;;;;;;28.77;22.90;;;6.30;99.90;;;;;;4971075;28;20261;-48
2023/04/09 03:23:57;;;;;;;31.67;27.67;;;6.20;99.90;;;;;;4970447;28;20206;-48
2023/04/09 03:26:26;;;;;;;23.87;21.17;;;6.10;99.90;;;;;;4973667;28;20261;-48
2023/04/09 03:28:52;;;;;;;31.03;25.93;;;6.20;99.90;;;;;;4972963;28;20225;-49
2023/04/09 03:31:19;;;;;;;30.03;24.47;;;6.10;99.90;;;;;;4971581;28;20249;-48
2023/04/09 03:33:46;;;;;;;27.03;22.17;;;6.10;99.90;;;;;;4965597;28;20198;-48
2023/04/09 03:36:13;;;;;;;23.93;19.17;;;6.00;99.90;;;;;;4973474;28;20200;-48
2023/04/09 03:38:40;;;;;;;27.07;20.63;;;6.00;99.90;;;;;;4969365;28;20231;-48
2023/04/09 03:41:07;;;;;;;24.27;19.80;;;6.00;99.90;;;;;;4967729;28;20212;-48
2023/04/09 03:43:36;;;;;;;35.67;31.87;;;5.90;99.90;;;;;;4969655;28;20285;-48
2023/04/09 03:46:10;;;;;;;30.03;26.73;;;6.00;99.90;;;;;;4960248;28;20213;-48
2023/04/09 03:48:37;;;;;;;26.10;22.57;;;6.00;99.90;;;;;;4963141;28;20274;-48
2023/04/09 03:51:05;;;;;;;27.80;22.00;;;6.00;99.90;;;;;;4968343;28;20570;-48
2023/04/09 03:53:32;;;;;;;25.77;21.33;;;6.00;99.90;;;;;;4971701;28;20211;-48
2023/04/09 03:56:00;;;;;;;26.97;21.97;;;6.10;99.90;;;;;;4971821;28;20692;-48
2023/04/09 03:58:27;;;;;;;26.10;20.87;;;6.10;99.90;;;;;;4962807;28;20231;-48
2023/04/09 04:00:56;;;;;;;29.03;21.77;;;6.10;99.90;;;;;;4958270;28;20253;-48
2023/04/09 04:03:23;;;;;;;25.83;20.27;;;6.10;99.90;;;;;;4962473;28;20278;-48
2023/04/09 04:05:50;;;;;;;27.27;20.53;;;6.20;99.90;;;;;;4959213;28;20203;-48
2023/04/09 04:08:17;;;;;;;24.40;20.57;;;6.20;99.90;;;;;;4953524;28;20217;-48
2023/04/09 04:10:44;;;;;;;32.20;24.30;;;6.20;99.90;;;;;;4955967;28;21621;-48
2023/04/09 04:13:11;;;;;;;29.43;22.37;;;6.20;99.90;;;;;;4962270;28;20216;-48
2023/04/09 04:15:41;;;;;;;29.57;21.07;;;6.10;99.90;;;;;;4958134;28;20665;-48
2023/04/09 04:18:09;;;;;;;26.77;22.17;;;6.00;99.90;;;;;;4955736;28;20303;-48
2023/04/09 04:20:38;;;;;;;29.10;22.87;;;6.00;99.90;;;;;;4962608;28;20222;-48
2023/04/09 04:23:05;;;;;;;30.37;21.60;;;6.00;99.90;;;;;;4959618;28;20211;-48
2023/04/09 04:25:32;;;;;;;27.17;21.23;;;6.00;99.90;;;;;;4965936;28;20664;-48
2023/04/09 04:27:59;;;;;;;24.40;20.13;;;6.00;99.90;;;;;;4954803;28;20246;-48
2023/04/09 04:30:26;;;;;;;25.43;20.17;;;6.00;99.90;;;;;;4956823;28;20253;-48
2023/04/09 04:32:53;;;;;;;23.10;19.93;;;6.00;99.90;;;;;;4959455;28;20661;-48
2023/04/09 04:35:22;;;;;;;23.47;19.27;;;6.00;99.90;;;;;;4955214;28;20257;-48
2023/04/09 04:37:49;;;;;;;24.57;17.43;;;6.00;99.90;;;;;;4955739;28;20692;-48
2023/04/09 04:40:16;;;;;;;26.07;20.23;;;6.00;99.90;;;;;;4958953;28;20229;-48
2023/04/09 04:42:43;;;;;;;24.93;20.93;;;6.00;99.90;;;;;;4965141;28;20575;-48
2023/04/09 04:45:11;;;;;;;23.10;18.60;;;6.00;99.90;;;;;;4969386;28;20668;-49
2023/04/09 04:47:38;;;;;;;25.67;20.87;;;6.00;99.90;;;;;;4954812;28;20201;-48
2023/04/09 04:50:07;;;;;;;28.03;24.20;;;6.00;99.90;;;;;;4959143;28;20222;-48
2023/04/09 04:52:39;;;;;;;19.93;16.30;;;6.00;99.90;;;;;;4965855;28;20206;-48
2023/04/09 04:55:07;;;;;;;17.00;15.00;;;6.00;99.90;;;;;;4956894;28;20311;-48
2023/04/09 04:57:34;;;;;;;22.70;16.23;;;5.90;99.90;;;;;;4959699;28;20302;-48
2023/04/09 05:00:01;;;;;;;21.60;16.47;;;5.90;99.90;;;;;;4970839;28;20225;-48
2023/04/09 05:02:28;;;;;;;19.33;14.30;;;5.90;99.90;;;;;;4955781;28;20208;-48
2023/04/09 05:04:55;;;;;;;17.30;15.10;;;5.90;99.90;;;;;;4957093;28;20669;-48
2023/04/09 05:07:22;;;;;;;17.90;16.07;;;5.90;99.90;;;;;;4955816;28;20584;-48
2023/04/09 05:09:51;;;;;;;23.20;18.33;;;5.90;99.90;;;;;;4959058;28;20222;-48
2023/04/09 05:12:18;;;;;;;22.23;19.83;;;5.90;99.90;;;;;;4960878;28;20294;-48
2023/04/09 05:14:45;;;;;;;18.60;16.70;;;6.00;99.90;;;;;;4956769;28;20203;-48
2023/04/09 05:17:11;;;;;;;15.90;13.97;;;6.00;99.90;;;;;;4966260;28;20225;-48
2023/04/09 05:19:38;;;;;;;19.53;17.53;;;6.00;99.90;;;;;;4959228;28;20226;-48
2023/04/09 05:22:06;;;;;;;23.77;20.50;;;6.00;99.90;;;;;;4954542;28;20207;-48
2023/04/09 05:24:33;;;;;;;18.80;16.37;;;6.10;99.90;;;;;;4956268;28;20214;-48
2023/04/09 05:27:01;;;;;;;18.47;15.17;;;6.00;99.90;;;;;;4952948;28;20199;-48
2023/04/09 05:29:28;;;;;;;15.17;12.43;;;6.00;99.90;;;;;;4965508;28;20589;-48
2023/04/09 05:31:55;;;;;;;17.60;12.87;;;6.10;99.90;;;;;;4969331;28;20722;-48
2023/04/09 05:34:22;;;;;;;15.43;12.90;;;6.10;99.90;;;;;;4968228;28;20253;-48
2023/04/09 05:36:49;;;;;;;15.23;12.47;;;6.00;99.90;;;;;;4970798;28;20214;-48
2023/04/09 05:39:16;;;;;;;15.20;13.23;;;6.10;99.90;;;;;;4965758;28;20282;-48
2023/04/09 05:41:43;;;;;;;15.53;13.53;;;6.10;99.90;;;;;;4961544;28;20203;-48
2023/04/09 05:44:12;;;;;;;14.13;12.67;;;6.20;99.90;;;;;;4952922;28;20195;-48
2023/04/09 05:46:39;;;;;;;14.47;12.97;;;6.30;99.90;;;;;;4953076;28;20267;-48
2023/04/09 05:49:06;;;;;;;15.53;13.60;;;6.40;99.90;;;;;;4952523;28;20254;-49
2023/04/09 05:51:33;;;;;;;16.40;13.13;;;6.50;99.90;;;;;;4966925;28;20206;-48
2023/04/09 05:54:01;;;;;;;15.53;12.87;;;6.50;99.90;;;;;;4973858;28;20202;-48
2023/04/09 05:56:28;;;;;;;15.90;12.80;;;6.70;99.90;;;;;;4972723;28;20208;-47
2023/04/09 05:58:55;;;;;;;16.13;14.40;;;7.10;99.90;;;;;;4966127;28;20226;-48
2023/04/09 06:01:23;;;;;;;16.33;14.13;;;7.40;99.90;;;;;;4972100;28;20206;-48
2023/04/09 06:03:50;;;;;;;17.33;14.20;;;7.50;99.90;;;;;;4973080;28;20214;-48
2023/04/09 06:06:18;;;;;;;15.20;11.90;;;7.70;99.90;;;;;;4972746;28;20288;-48
2023/04/09 06:08:45;;;;;;;16.00;13.63;;;8.60;99.90;;;;;;4972748;28;20612;-48
2023/04/09 06:11:13;;;;;;;15.73;14.13;;;9.30;99.90;;;;;;4974231;28;20254;-48
2023/04/09 06:13:40;;;;;;;16.53;14.53;;;10.00;99.90;;;;;;4974868;28;20667;-48
2023/04/09 06:16:08;;;;;;;17.87;13.97;;;10.90;99.90;;;;;;4974955;28;20565;-48
2023/04/09 06:18:37;;;;;;;17.97;13.63;;;11.60;99.90;;;;;;4974495;28;20247;-48
2023/04/09 06:21:04;;;;;;;16.93;14.80;;;12.00;99.90;;;;;;4970249;28;20458;-48
2023/04/09 06:23:32;;;;;;;15.10;13.57;;;11.70;99.90;;;;;;4974118;28;20239;-48
2023/04/09 06:26:00;;;;;;;17.23;15.30;;;12.00;99.90;;;;;;4974693;28;20273;-48
2023/04/09 06:28:28;;;;;;;14.73;13.27;;;12.00;99.90;;;;;;4973415;28;20341;-48
2023/04/09 06:30:55;;;;;;;12.33;11.07;;;11.80;99.90;;;;;;4970820;28;20251;-48
2023/04/09 06:33:22;;;;;;;12.37;11.23;;;11.20;99.90;;;;;;4972278;28;20271;-48
2023/04/09 06:35:50;;;;;;;13.10;11.70;;;11.10;99.90;;;;;;4972707;28;20261;-48
2023/04/09 06:38:17;;;;;;;13.07;11.73;;;10.90;99.90;;;;;;4969080;28;20239;-48
2023/04/09 06:40:45;;;;;;;14.53;12.60;;;10.80;99.90;;;;;;4966520;28;20202;-48
2023/04/09 06:43:12;;;;;;;11.90;10.73;;;11.00;99.90;;;;;;4970313;28;20198;-48
2023/04/09 06:45:39;;;;;;;16.20;14.63;;;10.90;99.90;;;;;;4972051;28;20270;-48
2023/04/09 06:48:06;;;;;;;15.10;12.93;;;10.80;99.90;;;;;;4970898;28;20203;-48
2023/04/09 06:50:33;;;;;;;14.30;12.80;;;10.80;99.90;;;;;;4972386;28;20277;-51
2023/04/09 06:53:02;;;;;;;16.40;14.00;;;10.90;99.90;;;;;;4973999;28;20693;-48
2023/04/09 06:55:29;;;;;;;17.27;15.07;;;10.90;99.90;;;;;;4973995;28;20223;-49
2023/04/09 06:57:56;;;;;;;18.80;15.97;;;10.80;99.90;;;;;;4973419;28;20566;-48
2023/04/09 07:00:23;;;;;;;18.17;15.77;;;10.60;99.90;;;;;;4970567;28;20240;-48
2023/04/09 07:02:50;;;;;;;16.30;13.63;;;10.30;99.90;;;;;;4971423;28;20670;-48
2023/04/09 07:05:17;;;;;;;18.30;15.77;;;10.30;99.90;;;;;;4971728;28;20376;-49
2023/04/09 07:07:44;;;;;;;17.73;15.83;;;10.50;99.90;;;;;;4959990;28;20210;-48
2023/04/09 07:10:12;;;;;;;17.20;14.73;;;10.60;99.90;;;;;;4972529;28;20241;-48
2023/04/09 07:12:42;;;;;;;17.00;15.10;;;10.70;99.90;;;;;;4973272;28;20206;-48
2023/04/09 07:15:10;;;;;;;16.13;14.47;;;10.70;99.90;;;;;;4973570;28;20206;-48
2023/04/09 07:17:39;;;;;;;16.90;14.20;;;10.90;99.90;;;;;;4972718;28;20674;-48
2023/04/09 07:20:07;;;;;;;16.80;14.37;;;11.30;99.90;;;;;;4972231;28;20652;-48
2023/04/09 07:22:35;;;;;;;19.07;17.17;;;12.00;99.90;;;;;;4966439;28;20211;-48
2023/04/09 07:25:02;;;;;;;18.03;15.63;;;12.30;99.90;;;;;;4972380;28;20203;-48
2023/04/09 07:27:31;;;;;;;15.70;13.93;;;12.80;99.90;;;;;;4971950;28;20268;-48
2023/04/09 07:29:59;;;;;;;18.13;15.37;;;13.50;99.90;;;;;;4969822;28;20230;-48
2023/04/09 07:32:26;;;;;;;15.00;13.53;;;14.20;99.90;;;;;;4972399;28;20208;-48
2023/04/09 07:34:54;;;;;;;16.03;14.40;;;15.20;99.90;;;;;;4972785;28;20204;-49
2023/04/09 07:37:21;;;;;;;16.40;14.70;;;15.60;99.90;;;;;;4972230;28;20274;-49
2023/04/09 07:39:50;;;;;;;14.97;12.77;;;16.00;99.90;;;;;;4963815;28;20220;-48
2023/04/09 07:42:17;;;;;;;14.07;12.53;;;16.00;99.90;;;;;;4967792;28;20219;-49
2023/04/09 07:44:46;;;;;;;15.70;14.10;;;15.80;99.90;;;;;;4971936;28;20203;-49
2023/04/09 07:47:13;;;;;;;16.33;14.73;;;16.20;99.90;;;;;;4965127;28;20212;-49
2023/04/09 07:49:40;;;;;;;14.70;13.17;;;16.60;99.90;;;;;;4972283;28;20228;-49
2023/04/09 07:52:07;;;;;;;14.77;13.37;;;16.30;99.90;;;;;;4970827;28;20216;-50
2023/04/09 07:54:35;;;;;;;15.33;13.97;;;16.30;99.90;;;;;;4972320;28;20205;-49
2023/04/09 07:57:02;;;;;;;14.60;13.30;;;16.90;99.90;;;;;;4967986;28;20208;-49
2023/04/09 07:59:30;;;;;;;15.87;14.37;;;15.90;99.90;;;;;;4970190;28;20594;-49
2023/04/09 08:01:59;;;;;;;16.40;14.83;;;16.00;99.90;;;;;;4968091;28;20205;-49
2023/04/09 08:04:26;;;;;;;14.60;13.20;;;16.20;99.90;;;;;;4969370;28;20209;-49
2023/04/09 08:06:54;;;;;;;18.33;16.63;;;16.20;99.90;;;;;;4969579;28;20208;-49
2023/04/09 08:09:21;;;;;;;17.03;15.43;;;16.70;99.90;;;;;;4970129;28;20224;-48
2023/04/09 08:11:49;;;;;;;16.33;14.67;;;17.40;99.90;;;;;;4972013;28;20201;-50
2023/04/09 08:14:17;;;;;;;15.20;13.70;;;17.90;99.90;;;;;;4972379;28;20244;-49
2023/04/09 08:16:46;;;;;;;14.80;13.40;;;18.10;99.90;;;;;;4970507;28;20204;-48
2023/04/09 08:19:16;;;;;;;15.87;14.47;;;17.70;99.90;;;;;;4969041;28;20234;-48
2023/04/09 08:21:43;;;;;;;14.97;13.53;;;17.50;99.90;;;;;;4968703;28;20666;-49
2023/04/09 08:24:11;;;;;;;15.03;13.63;;;17.50;99.90;;;;;;4970386;28;20255;-48
2023/04/09 08:26:38;;;;;;;16.47;14.77;;;18.00;99.90;;;;;;4969874;28;20230;-49
2023/04/09 08:29:05;;;;;;;20.70;18.80;;;18.10;99.90;;;;;;4964323;28;20271;-49
2023/04/09 08:31:32;;;;;;;15.00;13.50;;;18.40;99.90;;;;;;4968185;28;20204;-49
2023/04/09 08:34:01;;;;;;;15.27;13.70;;;18.40;99.90;;;;;;4990538;23;20204;-50
2023/04/09 08:36:30;;;;;;;15.10;13.60;;;17.80;99.90;;;;;;4984668;28;20219;-50
2023/04/09 08:38:59;;;;;;;17.23;15.53;;;17.50;99.90;;;;;;4983289;28;20216;-49
2023/04/09 08:41:28;;;;;;;16.63;15.07;;;17.80;99.90;;;;;;4986977;28;20208;-49
2023/04/09 08:43:56;;;;;;;15.90;14.30;;;17.20;99.90;;;;;;4991321;28;20212;-49
2023/04/09 08:46:23;;;;;;;17.60;15.87;;;16.00;99.90;;;;;;4998613;28;20263;-49
2023/04/09 08:48:51;;;;;;;14.27;12.87;;;15.10;99.90;;;;;;4996187;28;20195;-49
2023/04/09 08:51:20;;;;;;;15.97;14.47;;;15.50;99.90;;;;;;4992425;28;20265;-49
2023/04/09 08:53:52;;;;;;;16.50;14.80;;;16.20;99.90;;;;;;4999833;28;20198;-49
2023/04/09 08:56:20;;;;;;;19.53;17.87;;;15.60;99.90;;;;;;5011107;28;20290;-49
2023/04/09 08:58:47;;;;;;;18.87;16.97;;;15.20;99.90;;;;;;4999098;28;20230;-50
2023/04/09 09:01:25;;;;;;;16.33;14.73;;;15.10;99.90;;;;;;4976807;28;20274;-49
2023/04/09 09:03:57;;;;;;;15.33;13.83;;;15.80;99.90;;;;;;4993886;28;20857;-49
2023/04/09 09:06:26;;;;;;;16.10;14.50;;;17.00;99.90;;;;;;4974368;28;20288;-49
2023/04/09 09:09:08;;;;;;;15.63;14.07;;;17.80;99.90;;;;;;4981100;28;20199;-49
2023/04/09 09:11:36;;;;;;;18.10;16.40;;;17.70;99.90;;;;;;4990747;28;20266;-49
2023/04/09 09:14:04;;;;;;;26.13;23.53;;;17.20;99.90;;;;;;4990983;28;20693;-49
2023/04/09 09:16:33;;;;;;;15.27;13.77;;;17.20;99.90;;;;;;4990405;28;20578;-49
2023/04/09 09:19:01;;;;;;;15.67;14.17;;;18.00;99.90;;;;;;4994276;28;20215;-49
2023/04/09 09:21:29;;;;;;;16.50;14.80;;;18.30;99.90;;;;;;4982321;28;20208;-48
2023/04/09 09:23:56;;;;;;;15.23;13.73;;;17.20;99.90;;;;;;5010764;28;20254;-49
2023/04/09 09:26:26;;;;;;;16.67;14.83;;;15.30;99.90;;;;;;5011058;28;20871;-49
2023/04/09 09:28:53;;;;;;;15.90;14.30;;;14.70;99.90;;;;;;4996486;28;20681;-50
2023/04/09 09:31:22;;;;;;;14.97;13.57;;;14.20;99.90;;;;;;4988153;28;20209;-49
2023/04/09 09:33:49;;;;;;;14.60;13.23;;;13.70;99.90;;;;;;4976667;28;20771;-48
2023/04/09 09:36:30;;;;;;;16.97;14.80;;;13.00;99.90;;;;;;4976205;28;20872;-49
2023/04/09 09:39:01;;;;;;;14.77;13.37;;;13.50;99.90;;;;;;4986948;28;20222;-49
2023/04/09 09:41:29;;;;;;;15.83;14.17;;;14.30;99.90;;;;;;4980113;28;20228;-48
2023/04/09 09:43:56;;;;;;;14.47;12.97;;;15.40;99.90;;;;;;4975926;28;20279;-49
2023/04/09 09:46:26;;;;;;;12.53;11.27;;;15.80;99.90;;;;;;4982553;28;20591;-49
2023/04/09 09:48:53;;;;;;;16.30;14.57;;;15.00;99.90;;;;;;4984391;28;20210;-49
2023/04/09 09:51:26;;;;;;;15.07;13.47;;;14.80;99.90;;;;;;4987180;28;20211;-49
2023/04/09 09:53:56;;;;;;;18.20;16.30;;;15.30;99.90;;;;;;4991265;28;20207;-49
2023/04/09 09:56:31;;;;;;;13.67;12.27;;;16.10;99.90;;;;;;4982605;28;20214;-49
2023/04/09 09:59:06;;;;;;;15.47;14.07;;;16.70;99.90;;;;;;4980838;28;20577;-49
2023/04/09 10:01:33;;;;;;;12.87;11.67;;;16.80;99.90;;;;;;4983259;28;20204;-49
2023/04/09 10:04:02;;;;;;;15.57;14.00;;;16.80;99.90;;;;;;4988640;28;20196;-50
2023/04/09 10:06:30;;;;;;;17.30;15.50;;;17.50;99.90;;;;;;4988811;28;20210;-49
2023/04/09 10:09:00;;;;;;;15.57;13.97;;;17.80;99.90;;;;;;4992530;28;20196;-48
2023/04/09 10:11:28;;;;;;;13.87;12.57;;;17.30;99.90;;;;;;4991464;28;20200;-49
2023/04/09 10:13:57;;;;;;;15.43;13.93;;;16.50;99.90;;;;;;4981622;28;20271;-49
2023/04/09 10:16:27;;;;;;;13.70;12.50;;;16.30;99.90;;;;;;4988421;28;20199;-49
2023/04/09 10:18:55;;;;;;;13.67;12.40;;;16.50;99.90;;;;;;4987332;28;20310;-48
2023/04/09 10:21:31;;;;;;;12.63;11.53;;;16.60;99.90;;;;;;4977825;28;20667;-49
2023/04/09 10:24:04;;;;;;;12.83;11.63;;;16.70;99.90;;;;;;5009038;28;20209;-49
2023/04/09 10:26:34;;;;;;;16.87;15.10;;;17.30;99.90;;;;;;5008304;28;20239;-50
2023/04/09 10:29:08;;;;;;;18.57;15.57;;;17.50;99.90;;;;;;4989145;28;20246;-49
2023/04/09 10:32:03;;;;;;;11.73;10.77;;;17.10;99.90;;;;;;4987583;28;20204;-49
2023/04/09 10:34:32;;;;;;;15.37;14.03;;;17.20;99.90;;;;;;4984041;28;20232;-48
2023/04/09 10:36:59;;;;;;;10.83;9.93;;;17.70;99.90;;;;;;4979085;28;20204;-49
2023/04/09 10:39:28;;;;;;;9.40;8.50;;;18.10;99.90;;;;;;4985890;28;20219;-49
2023/04/09 10:41:56;;;;;;;14.03;12.83;;;18.40;99.90;;;;;;4993753;28;20200;-49
2023/04/09 10:44:25;;;;;;;13.23;12.00;;;18.00;99.90;;;;;;5004892;28;20223;-48
2023/04/09 10:46:55;;;;;;;11.80;10.80;;;17.50;99.90;;;;;;4987308;28;20199;-49
2023/04/09 10:49:24;;;;;;;10.33;9.43;;;16.50;99.90;;;;;;4986613;28;20259;-49
2023/04/09 10:52:01;;;;;;;11.20;10.30;;;16.20;99.90;;;;;;4984128;28;20645;-48
2023/04/09 10:54:45;;;;;;;10.10;9.30;;;15.90;99.90;;;;;;4981179;28;20224;-49
2023/04/09 10:57:14;;;;;;;9.47;8.67;;;15.60;99.90;;;;;;4984610;28;20617;-48
2023/04/09 10:59:43;;;;;;;8.90;8.20;;;15.70;99.90;;;;;;4991368;28;20597;-49
2023/04/09 11:02:45;;;;;;;10.47;9.53;;;15.70;99.90;;;;;;4981326;28;20211;-48
2023/04/09 11:05:21;;;;;;;8.60;7.83;;;16.10;99.90;;;;;;4982226;28;20228;-49
2023/04/09 11:07:54;;;;;;;10.77;9.80;;;15.60;99.90;;;;;;4974430;28;20201;-49
2023/04/09 11:10:21;;;;;;;8.20;7.50;;;16.00;99.90;;;;;;4980515;28;20201;-48
2023/04/09 11:12:48;;;;;;;8.20;7.53;;;16.20;99.90;;;;;;4983211;28;20310;-48
2023/04/09 11:15:20;;;;;;;6.77;6.27;;;15.60;99.90;;;;;;4974426;28;20308;-49
2023/04/09 11:17:48;;;;;;;6.13;5.63;;;15.20;99.90;;;;;;4976787;28;20208;-49
2023/04/09 11:20:19;;;;;;;6.87;6.27;;;15.20;99.90;;;;;;4988314;28;20810;-50
2023/04/09 11:22:46;;;;;;;7.27;5.90;;;15.00;99.90;;;;;;4985725;28;20203;-49
2023/04/09 11:25:19;;;;;;;7.27;6.67;;;15.10;99.90;;;;;;5004577;28;20268;-48
2023/04/09 11:27:46;;;;;;;7.40;6.80;;;15.00;99.90;;;;;;5008531;28;20203;-51
2023/04/09 11:30:13;;;;;;;7.43;6.73;;;15.30;99.90;;;;;;4987816;28;20211;-49
2023/04/09 11:32:41;;;;;;;7.07;6.57;;;14.90;99.90;;;;;;4980284;28;20257;-49
2023/04/09 11:35:15;;;;;;;5.40;5.00;;;15.00;99.90;;;;;;4989901;28;20277;-49
2023/04/09 11:37:45;;;;;;;6.63;6.03;;;14.60;99.90;;;;;;4991115;28;20687;-49
2023/04/09 11:40:16;;;;;;;6.97;6.37;;;14.40;99.90;;;;;;4979185;28;20234;-49
2023/04/09 11:42:43;;;;;;;5.77;5.27;;;14.40;99.90;;;;;;4992473;28;20200;-49
2023/04/09 11:45:11;;;;;;;6.30;5.90;;;14.20;99.90;;;;;;4992854;28;20430;-49
2023/04/09 11:47:41;;;;;;;7.00;6.30;;;14.30;99.90;;;;;;4991639;28;20736;-49
2023/04/09 11:50:11;;;;;;;6.13;5.70;;;14.20;99.90;;;;;;4999256;28;20291;-49
2023/04/09 11:52:44;;;;;;;4.67;4.40;;;14.30;99.90;;;;;;4995768;28;20207;-49
2023/04/09 11:55:11;;;;;;;5.53;5.03;;;14.50;99.90;;;;;;4982586;28;20641;-49
2023/04/09 11:57:41;;;;;;;5.13;4.73;;;14.40;99.90;;;;;;4993664;28;20203;-49
2023/04/09 12:00:11;;;;;;;5.50;5.10;;;14.30;99.90;;;;;;4980099;28;20390;-49
2023/04/09 12:02:43;;;;;;;3.87;3.67;;;14.50;99.90;;;;;;4988905;28;20295;-48
2023/04/09 12:05:12;;;;;;;3.50;3.30;;;14.50;99.90;;;;;;4984815;28;20308;-49
2023/04/09 12:07:47;;;;;;;4.10;3.87;;;14.00;99.90;;;;;;4991868;28;20356;-49
2023/04/09 12:10:14;;;;;;;4.20;3.90;;;14.00;99.90;;;;;;4974120;28;20207;-48
2023/04/09 12:12:43;;;;;;;2.43;2.33;;;14.10;99.90;;;;;;4980570;28;20203;-48
2023/04/09 12:15:22;;;;;;;5.27;4.90;;;14.10;99.90;;;;;;4975454;28;20324;-48
2023/04/09 12:17:50;;;;;;;6.60;6.20;;;14.20;99.90;;;;;;4972621;28;20581;-49
2023/04/09 12:20:30;;;;;;;6.03;5.63;;;14.40;99.90;;;;;;4972558;28;20225;-48
2023/04/09 12:23:01;;;;;;;4.53;4.23;;;14.60;99.90;;;;;;4988457;28;20264;-49
2023/04/09 12:25:28;;;;;;;4.47;4.17;;;14.60;99.90;;;;;;4988835;28;20321;-49
2023/04/09 12:27:55;;;;;;;4.37;3.97;;;14.60;99.90;;;;;;4985453;28;20200;-50
2023/04/09 12:30:23;;;;;;;3.63;3.43;;;14.60;99.90;;;;;;4987172;28;20196;-49
2023/04/09 12:32:50;;;;;;;4.37;4.07;;;14.70;99.90;;;;;;4981912;28;20261;-49
2023/04/09 12:35:17;;;;;;;5.30;3.33;;;14.90;99.90;;;;;;4990608;28;20470;-49
2023/04/09 12:37:45;;;;;;;3.70;3.50;;;14.60;99.90;;;;;;4993915;28;20204;-50
2023/04/09 12:40:13;;;;;;;4.47;4.17;;;14.40;99.90;;;;;;4989921;28;20226;-48
2023/04/09 12:42:41;;;;;;;3.72;3.53;;;14.40;99.90;;;;;;4981504;28;20588;-48